createdAt,value
2024-02-21T00:01:57.165Z,15.10
2024-02-21T00:03:58.714Z,16.95
2024-02-21T00:06:00.274Z,26.80
2024-02-21T00:08:01.952Z,24.35
2024-02-21T00:10:04.442Z,22.95
2024-02-21T00:12:06.560Z,19.08
2024-02-21T00:14:08.095Z,17.80
2024-02-21T00:16:09.721Z,20.83
2024-02-21T00:18:12.227Z,17.77
2024-02-21T00:20:14.225Z,16.92
2024-02-21T00:22:15.925Z,22.92
2024-02-21T00:24:17.772Z,18.65
2024-02-21T00:26:19.402Z,18.42
2024-02-21T00:28:21.116Z,19.17
2024-02-21T00:30:23.045Z,16.25
2024-02-21T00:32:24.659Z,19.70
2024-02-21T00:34:26.346Z,18.13
2024-02-21T00:36:27.975Z,14.27
2024-02-21T00:38:30.049Z,14.85
2024-02-21T00:40:32.139Z,24.77
2024-02-21T00:42:33.833Z,19.13
2024-02-21T00:44:35.386Z,20.17
2024-02-21T00:46:37.063Z,18.60
2024-02-21T00:48:38.683Z,18.08
2024-02-21T00:50:40.406Z,20.30
2024-02-21T00:52:42.090Z,18.95
2024-02-21T00:54:50.370Z,18.77
2024-02-21T00:56:55.276Z,19.27
2024-02-21T00:58:57.126Z,20.70
2024-02-21T01:00:58.769Z,25.90
2024-02-21T01:03:00.412Z,19.75
2024-02-21T01:05:03.836Z,20.52
2024-02-21T01:07:05.630Z,18.05
2024-02-21T01:09:07.374Z,12.82
2024-02-21T01:11:09.059Z,16.63
2024-02-21T01:13:10.675Z,16.10
2024-02-21T01:15:12.932Z,12.43
2024-02-21T01:17:14.535Z,20.08
2024-02-21T01:19:16.153Z,16.98
2024-02-21T01:21:17.748Z,20.75
2024-02-21T01:23:19.308Z,11.13
2024-02-21T01:25:20.823Z,24.98
2024-02-21T01:27:22.386Z,17.75
2024-02-21T01:29:23.936Z,16.15
2024-02-21T01:31:25.448Z,18.30
2024-02-21T01:33:27.067Z,14.07
2024-02-21T01:35:28.779Z,18.65
2024-02-21T01:37:30.524Z,15.63
2024-02-21T01:39:32.094Z,21.55
2024-02-21T01:41:33.812Z,16.55
2024-02-21T01:43:35.334Z,17.77
2024-02-21T01:45:36.971Z,14.63
2024-02-21T01:47:38.777Z,17.55
2024-02-21T01:49:41.997Z,22.35
2024-02-21T01:51:43.840Z,23.55
2024-02-21T01:53:46.532Z,18.67
2024-02-21T01:55:49.042Z,17.45
2024-02-21T01:57:50.648Z,19.23
2024-02-21T01:59:52.786Z,22.75
2024-02-21T02:01:56.565Z,31.83
2024-02-21T02:04:00.021Z,23.63
2024-02-21T02:06:01.580Z,19.50
2024-02-21T02:08:03.221Z,26.00
2024-02-21T02:10:05.397Z,24.45
2024-02-21T02:12:07.260Z,22.75
2024-02-21T02:14:08.787Z,24.00
2024-02-21T02:16:10.546Z,23.50
2024-02-21T02:18:13.408Z,20.73
2024-02-21T02:20:15.267Z,28.17
2024-02-21T02:22:23.813Z,24.05
2024-02-21T02:24:27.208Z,20.55
2024-02-21T02:26:28.763Z,24.38
2024-02-21T02:28:30.378Z,25.23
2024-02-21T02:30:38.430Z,29.95
2024-02-21T02:32:40.047Z,27.67
2024-02-21T02:34:41.715Z,38.10
2024-02-21T02:36:43.279Z,27.35
2024-02-21T02:38:44.800Z,27.90
2024-02-21T02:40:46.427Z,38.10
2024-02-21T02:42:50.081Z,27.70
2024-02-21T02:44:51.693Z,29.75
2024-02-21T02:46:53.257Z,35.22
2024-02-21T02:48:55.138Z,34.22
2024-02-21T02:50:56.872Z,32.00
2024-02-21T02:52:58.489Z,32.55
2024-02-21T02:55:00.371Z,36.45
2024-02-21T02:57:01.975Z,33.72
2024-02-21T02:59:04.573Z,35.30
2024-02-21T03:01:08.071Z,24.48
2024-02-21T03:03:09.845Z,28.85
2024-02-21T03:05:21.985Z,33.10
2024-02-21T03:07:25.861Z,29.70
2024-02-21T03:09:27.445Z,26.77
2024-02-21T03:11:30.947Z,32.92
2024-02-21T03:13:33.021Z,29.73
2024-02-21T03:15:34.626Z,29.13
2024-02-21T03:17:36.514Z,29.33
2024-02-21T03:19:38.457Z,28.75
2024-02-21T03:21:40.278Z,32.30
2024-02-21T03:23:41.840Z,36.97
2024-02-21T03:25:43.427Z,30.95
2024-02-21T03:27:44.997Z,31.35
2024-02-21T03:29:46.544Z,27.15
2024-02-21T03:31:48.070Z,27.85
2024-02-21T03:33:49.660Z,27.02
2024-02-21T03:35:51.186Z,26.00
2024-02-21T03:37:52.760Z,27.23
2024-02-21T03:39:54.341Z,27.45
2024-02-21T03:41:55.884Z,28.70
2024-02-21T03:43:57.509Z,22.70
2024-02-21T03:45:59.071Z,29.55
2024-02-21T03:48:01.008Z,33.60
2024-02-21T03:50:02.878Z,26.88
2024-02-21T03:52:04.932Z,26.42
2024-02-21T03:54:06.517Z,22.42
2024-02-21T03:56:08.447Z,25.95
2024-02-21T03:58:09.953Z,31.98
2024-02-21T04:00:12.254Z,33.60
2024-02-21T04:02:14.287Z,35.80
2024-02-21T04:04:15.944Z,22.90
2024-02-21T04:06:17.566Z,22.88
2024-02-21T04:08:19.216Z,23.02
2024-02-21T04:10:20.839Z,34.28
2024-02-21T04:12:22.439Z,28.00
2024-02-21T04:14:23.985Z,26.25
2024-02-21T04:16:25.578Z,26.77
2024-02-21T04:18:27.162Z,25.10
2024-02-21T04:20:28.942Z,25.80
2024-02-21T04:22:30.481Z,29.27
2024-02-21T04:24:32.034Z,28.65
2024-02-21T04:26:34.186Z,26.25
2024-02-21T04:28:35.720Z,25.13
2024-02-21T04:30:37.281Z,28.83
2024-02-21T04:32:39.223Z,26.17
2024-02-21T04:34:42.557Z,26.70
2024-02-21T04:36:44.714Z,22.65
2024-02-21T04:38:46.596Z,34.60
2024-02-21T04:40:48.197Z,31.02
2024-02-21T04:42:49.934Z,31.70
2024-02-21T04:44:51.488Z,33.75
2024-02-21T04:46:53.160Z,24.05
2024-02-21T04:48:54.878Z,30.25
2024-02-21T04:50:56.550Z,27.42
2024-02-21T04:52:58.096Z,29.48
2024-02-21T04:54:59.670Z,28.98
2024-02-21T04:57:01.208Z,25.83
2024-02-21T04:59:02.731Z,29.33
2024-02-21T05:01:04.671Z,27.67
2024-02-21T05:03:06.301Z,27.58
2024-02-21T05:05:08.313Z,36.75
2024-02-21T05:07:12.153Z,31.40
2024-02-21T05:09:14.068Z,36.83
2024-02-21T05:11:15.804Z,30.13
2024-02-21T05:13:17.498Z,27.52
2024-02-21T05:15:19.074Z,30.77
2024-02-21T05:17:20.796Z,34.47
2024-02-21T05:19:22.613Z,35.15
2024-02-21T05:21:29.402Z,46.65
2024-02-21T05:23:30.931Z,33.15
2024-02-21T05:25:32.503Z,38.88
2024-02-21T05:27:34.148Z,35.22
2024-02-21T05:29:36.154Z,39.97
2024-02-21T05:31:53.266Z,34.90
2024-02-21T05:33:54.902Z,38.22
2024-02-21T05:35:56.461Z,42.65
2024-02-21T05:37:58.403Z,35.13
2024-02-21T05:40:00.048Z,33.22
2024-02-21T05:42:01.606Z,33.05
2024-02-21T05:44:03.274Z,41.45
2024-02-21T05:46:05.021Z,30.13
2024-02-21T05:48:06.994Z,33.75
2024-02-21T05:50:09.922Z,32.17
2024-02-21T05:52:11.570Z,37.53
2024-02-21T05:54:13.198Z,42.30
2024-02-21T05:56:15.518Z,30.25
2024-02-21T05:58:17.082Z,29.27
2024-02-21T06:00:18.735Z,31.52
2024-02-21T06:02:21.109Z,41.47
2024-02-21T06:04:22.792Z,31.95
2024-02-21T06:06:24.462Z,42.38
2024-02-21T06:08:26.237Z,46.00
2024-02-21T06:10:27.753Z,33.85
2024-02-21T06:12:29.295Z,41.17
2024-02-21T06:14:30.803Z,55.38
2024-02-21T06:16:32.389Z,42.75
2024-02-21T06:18:36.662Z,44.10
2024-02-21T06:20:40.497Z,51.45
2024-02-21T06:22:42.110Z,42.33
2024-02-21T06:24:44.368Z,75.88
2024-02-21T06:26:46.535Z,50.40
2024-02-21T06:28:48.157Z,160.15
2024-02-21T06:30:49.768Z,127.53
2024-02-21T06:32:51.414Z,381.30
2024-02-21T06:34:53.134Z,102.95
2024-02-21T06:36:54.800Z,98.65
2024-02-21T06:38:56.432Z,127.80
2024-02-21T06:40:59.919Z,83.07
2024-02-21T06:43:01.601Z,45.90
2024-02-21T06:45:03.259Z,27.45
2024-02-21T06:47:04.989Z,22.45
2024-02-21T06:49:06.855Z,24.90
2024-02-21T06:51:08.534Z,20.95
2024-02-21T06:53:10.170Z,34.90
2024-02-21T06:55:11.796Z,28.35
2024-02-21T06:57:13.393Z,24.80
2024-02-21T06:59:17.310Z,17.27
2024-02-21T07:01:19.098Z,21.80
2024-02-21T07:03:20.957Z,32.88
2024-02-21T07:05:22.765Z,44.10
2024-02-21T07:07:24.546Z,43.33
2024-02-21T07:09:26.202Z,45.13
2024-02-21T07:11:27.796Z,38.10
2024-02-21T07:13:29.381Z,33.70
2024-02-21T07:15:32.133Z,46.33
2024-02-21T07:17:33.704Z,28.15
2024-02-21T07:19:36.720Z,33.45
2024-02-21T07:21:43.286Z,44.58
2024-02-21T07:23:45.084Z,38.00
2024-02-21T07:25:46.651Z,50.25
2024-02-21T07:27:48.217Z,69.82
2024-02-21T07:29:50.557Z,61.40
2024-02-21T07:31:53.143Z,53.90
2024-02-21T07:33:54.856Z,54.75
2024-02-21T07:35:56.412Z,53.70
2024-02-21T07:37:57.926Z,38.28
2024-02-21T07:39:59.456Z,58.95
2024-02-21T07:42:01.342Z,32.65
2024-02-21T07:44:04.619Z,22.70
2024-02-21T07:46:06.249Z,35.05
2024-02-21T07:48:08.213Z,45.38
2024-02-21T07:50:09.978Z,43.08
2024-02-21T07:52:11.681Z,33.88
2024-02-21T07:54:16.141Z,48.90
2024-02-21T07:56:19.189Z,23.17
2024-02-21T07:58:20.714Z,53.50
2024-02-21T08:00:22.621Z,40.80
2024-02-21T08:02:24.231Z,31.85
2024-02-21T08:04:26.615Z,30.52
2024-02-21T08:06:28.508Z,37.13
2024-02-21T08:08:30.101Z,35.97
2024-02-21T08:10:31.719Z,30.73
2024-02-21T08:12:33.898Z,37.97
2024-02-21T08:14:36.409Z,39.53
2024-02-21T08:16:38.117Z,36.90
2024-02-21T08:18:40.134Z,32.20
2024-02-21T08:20:41.800Z,28.65
2024-02-21T08:22:43.500Z,25.00
2024-02-21T08:24:45.070Z,16.75
2024-02-21T08:26:46.606Z,16.65
2024-02-21T08:28:48.295Z,19.42
2024-02-21T08:30:49.924Z,30.13
2024-02-21T08:32:51.671Z,19.08
2024-02-21T08:34:53.284Z,15.73
2024-02-21T08:36:54.923Z,14.88
2024-02-21T08:38:56.534Z,14.80
2024-02-21T08:40:58.042Z,22.38
2024-02-21T08:42:59.614Z,16.10
2024-02-21T08:45:01.169Z,17.02
2024-02-21T08:47:05.113Z,17.80
2024-02-21T08:49:07.664Z,17.88
2024-02-21T08:51:09.323Z,22.13
2024-02-21T08:53:11.640Z,16.25
2024-02-21T08:55:13.226Z,28.15
2024-02-21T08:57:15.059Z,14.23
2024-02-21T08:59:16.662Z,14.45
2024-02-21T09:01:18.345Z,17.25
2024-02-21T09:03:21.227Z,19.77
2024-02-21T09:05:23.273Z,20.60
2024-02-21T09:07:25.038Z,17.38
2024-02-21T09:09:29.951Z,20.98
2024-02-21T09:11:31.794Z,32.85
2024-02-21T09:13:34.555Z,17.33
2024-02-21T09:15:36.205Z,20.70
2024-02-21T09:17:37.902Z,19.45
2024-02-21T09:19:39.551Z,27.00
2024-02-21T09:21:41.215Z,29.17
2024-02-21T09:23:43.091Z,25.50
2024-02-21T09:25:44.667Z,46.72
2024-02-21T09:27:46.747Z,25.92
2024-02-21T09:29:48.482Z,29.40
2024-02-21T09:31:50.417Z,30.08
2024-02-21T09:33:52.143Z,14.05
2024-02-21T09:35:54.249Z,15.75
2024-02-21T09:37:56.144Z,17.60
2024-02-21T09:39:57.812Z,17.60
2024-02-21T09:42:08.126Z,16.45
2024-02-21T09:44:12.067Z,23.08
2024-02-21T09:46:21.409Z,15.98
2024-02-21T09:48:38.785Z,24.73
2024-02-21T09:50:44.687Z,21.38
2024-02-21T09:52:46.765Z,21.92
2024-02-21T09:54:49.978Z,18.00
2024-02-21T09:56:51.617Z,16.90
2024-02-21T09:58:53.217Z,14.80
2024-02-21T10:00:54.775Z,23.00
2024-02-21T10:02:56.874Z,18.80
2024-02-21T10:04:59.728Z,34.92
2024-02-21T10:07:01.261Z,29.20
2024-02-21T10:09:04.106Z,26.95
2024-02-21T10:11:05.749Z,21.85
2024-02-21T10:13:07.435Z,21.73
2024-02-21T10:15:09.463Z,17.80
2024-02-21T10:17:20.331Z,21.88
2024-02-21T10:19:22.574Z,15.48
2024-02-21T10:21:24.278Z,19.90
2024-02-21T10:23:25.818Z,18.23
2024-02-21T10:25:27.401Z,16.08
2024-02-21T10:27:29.624Z,16.50
2024-02-21T10:29:32.292Z,21.48
2024-02-21T10:31:34.664Z,19.92
2024-02-21T10:33:36.461Z,19.30
2024-02-21T10:35:38.068Z,15.85
2024-02-21T10:37:39.710Z,16.30
2024-02-21T10:39:42.809Z,16.10
2024-02-21T10:41:48.438Z,16.63
2024-02-21T10:43:55.774Z,17.10
2024-02-21T10:46:01.178Z,15.68
2024-02-21T10:48:15.509Z,14.32
2024-02-21T10:50:19.743Z,16.20
2024-02-21T10:52:49.378Z,17.08
2024-02-21T10:54:58.297Z,18.27
2024-02-21T10:57:03.071Z,19.57
2024-02-21T10:59:06.689Z,21.85
2024-02-21T11:01:09.314Z,22.95
2024-02-21T11:03:11.195Z,15.25
2024-02-21T11:05:13.890Z,14.32
2024-02-21T11:07:16.667Z,16.67
2024-02-21T11:09:18.266Z,13.50
2024-02-21T11:11:27.786Z,16.80
2024-02-21T11:13:36.736Z,16.42
2024-02-21T11:15:38.466Z,18.05
2024-02-21T11:17:47.212Z,15.95
2024-02-21T11:19:52.385Z,16.13
2024-02-21T11:21:55.765Z,16.38
2024-02-21T11:23:58.771Z,14.18
2024-02-21T11:26:10.671Z,15.98
2024-02-21T11:28:12.557Z,17.10
2024-02-21T11:30:23.660Z,17.52
2024-02-21T11:34:27.742Z,15.85
2024-02-21T11:36:29.530Z,17.00
2024-02-21T11:38:31.247Z,15.70
2024-02-21T11:40:32.869Z,15.10
2024-02-21T11:42:34.488Z,16.90
2024-02-21T11:44:39.211Z,16.27
2024-02-21T11:46:40.886Z,14.98
2024-02-21T11:48:45.610Z,14.30
2024-02-21T11:50:55.023Z,19.30
2024-02-21T11:52:56.769Z,18.30
2024-02-21T11:55:05.751Z,16.83
2024-02-21T11:57:08.119Z,18.08
2024-02-21T11:59:10.070Z,23.80
2024-02-21T12:01:11.749Z,18.55
2024-02-21T12:03:13.404Z,16.80
2024-02-21T12:05:15.731Z,16.23
2024-02-21T12:07:19.078Z,13.45
2024-02-21T12:09:21.011Z,17.23
2024-02-21T12:11:23.630Z,18.05
2024-02-21T12:13:25.436Z,13.68
2024-02-21T12:15:27.051Z,18.35
2024-02-21T12:17:28.806Z,14.80
2024-02-21T12:19:31.431Z,16.10
2024-02-21T12:21:39.454Z,17.10
2024-02-21T12:23:41.089Z,13.02
2024-02-21T12:25:43.512Z,16.95
2024-02-21T12:27:45.016Z,13.63
2024-02-21T12:29:46.537Z,14.77
2024-02-21T12:31:48.803Z,15.18
2024-02-21T12:33:50.416Z,16.23
2024-02-21T12:35:52.073Z,17.75
2024-02-21T12:37:53.697Z,13.57
2024-02-21T12:39:55.351Z,16.67
2024-02-21T12:41:57.881Z,19.08
2024-02-21T12:43:59.731Z,13.80
2024-02-21T12:46:01.362Z,13.80
2024-02-21T12:48:03.065Z,18.33
2024-02-21T12:50:07.681Z,12.77
2024-02-21T12:52:09.287Z,12.82
2024-02-21T12:54:13.768Z,17.15
2024-02-21T12:56:15.301Z,25.35
2024-02-21T12:58:17.118Z,15.40
2024-02-21T13:00:18.869Z,28.95
2024-02-21T13:02:21.226Z,20.77
2024-02-21T13:04:24.125Z,28.05
2024-02-21T13:06:26.227Z,37.15
2024-02-21T13:08:27.875Z,23.30
2024-02-21T13:10:29.457Z,22.27
2024-02-21T13:12:31.527Z,34.67
2024-02-21T13:14:34.251Z,23.88
2024-02-21T13:16:40.469Z,22.85
2024-02-21T13:18:44.179Z,25.13
2024-02-21T13:20:45.969Z,34.10
2024-02-21T13:22:47.905Z,38.60
2024-02-21T13:24:49.413Z,28.45
2024-02-21T13:26:50.988Z,26.20
2024-02-21T13:28:52.654Z,32.17
2024-02-21T13:30:54.389Z,24.73
2024-02-21T13:32:56.047Z,18.38
2024-02-21T13:34:57.860Z,35.15
2024-02-21T13:37:00.808Z,32.47
2024-02-21T13:39:02.403Z,22.90
2024-02-21T13:41:04.193Z,49.97
2024-02-21T13:43:07.077Z,53.58
2024-02-21T13:45:10.406Z,116.35
2024-02-21T13:47:15.107Z,103.85
2024-02-21T13:49:17.145Z,42.85
2024-02-21T13:51:18.941Z,46.20
2024-02-21T13:53:21.741Z,44.40
2024-02-21T13:55:23.527Z,66.60
2024-02-21T13:57:26.511Z,57.45
2024-02-21T13:59:28.105Z,62.95
2024-02-21T14:01:29.869Z,81.13
2024-02-21T14:03:31.669Z,75.88
2024-02-21T14:05:33.483Z,56.40
2024-02-21T14:07:35.068Z,52.65
2024-02-21T14:09:36.681Z,34.58
2024-02-21T14:11:39.497Z,48.25
2024-02-21T14:13:41.241Z,43.03
2024-02-21T14:15:47.223Z,47.65
2024-02-21T14:17:49.073Z,42.08
2024-02-21T14:19:50.727Z,51.95
2024-02-21T14:21:52.339Z,58.20
2024-02-21T14:23:54.074Z,111.20
2024-02-21T14:25:55.777Z,74.50
2024-02-21T14:27:57.338Z,47.67
2024-02-21T14:29:59.253Z,117.60
2024-02-21T14:32:01.052Z,89.30
2024-02-21T14:34:03.833Z,77.95
2024-02-21T14:36:05.789Z,90.05
2024-02-21T14:38:07.376Z,124.60
2024-02-21T14:40:09.405Z,120.50
2024-02-21T14:42:10.953Z,61.38
2024-02-21T14:44:12.595Z,63.17
2024-02-21T14:46:14.213Z,144.40
2024-02-21T14:48:16.041Z,74.72
2024-02-21T14:50:17.873Z,121.38
2024-02-21T14:52:22.287Z,47.55
2024-02-21T14:54:24.149Z,86.50
2024-02-21T14:56:25.700Z,100.07
2024-02-21T14:58:28.402Z,139.82
2024-02-21T15:00:32.972Z,84.30
2024-02-21T15:02:34.532Z,71.97
2024-02-21T15:04:36.231Z,115.30
2024-02-21T15:06:38.841Z,111.07
2024-02-21T15:08:40.572Z,76.15
2024-02-21T15:10:43.339Z,82.50
2024-02-21T15:12:46.450Z,75.18
2024-02-21T15:14:48.072Z,63.40
2024-02-21T15:16:49.646Z,61.25
2024-02-21T15:18:51.332Z,36.60
2024-02-21T15:20:52.988Z,42.05
2024-02-21T15:22:55.024Z,31.23
2024-02-21T15:24:56.820Z,39.90
2024-02-21T15:26:58.468Z,40.80
2024-02-21T15:29:00.060Z,39.80
2024-02-21T15:31:01.646Z,40.67
2024-02-21T15:33:03.384Z,28.02
2024-02-21T15:35:07.517Z,39.30
2024-02-21T15:37:09.282Z,29.17
2024-02-21T15:39:12.132Z,35.22
2024-02-21T15:41:16.592Z,29.10
2024-02-21T15:43:18.603Z,30.70
2024-02-21T15:45:20.186Z,26.80
2024-02-21T15:47:24.599Z,32.58
2024-02-21T15:49:26.401Z,27.27
2024-02-21T15:51:28.084Z,29.60
2024-02-21T15:53:29.617Z,30.50
2024-02-21T15:55:31.271Z,26.65
2024-02-21T15:57:33.514Z,25.77
2024-02-21T15:59:35.515Z,30.13
2024-02-21T16:01:37.312Z,27.70
2024-02-21T16:03:41.809Z,38.17
2024-02-21T16:05:43.679Z,33.22
2024-02-21T16:07:45.229Z,34.40
2024-02-21T16:09:48.551Z,29.77
2024-02-21T16:11:50.987Z,45.83
2024-02-21T16:13:53.940Z,145.70
2024-02-21T16:15:55.583Z,38.25
2024-02-21T16:17:57.833Z,80.57
2024-02-21T16:20:00.034Z,42.83
2024-02-21T16:22:01.937Z,40.90
2024-02-21T16:24:03.698Z,28.35
2024-02-21T16:26:05.332Z,32.38
2024-02-21T16:28:08.793Z,31.02
2024-02-21T16:30:10.692Z,33.92
2024-02-21T16:32:12.350Z,36.25
2024-02-21T16:34:14.135Z,36.85
2024-02-21T16:36:25.724Z,33.47
2024-02-21T16:38:27.849Z,42.00
2024-02-21T16:40:29.428Z,38.53
2024-02-21T16:42:32.363Z,29.85
2024-02-21T16:44:34.562Z,39.92
2024-02-21T16:46:36.277Z,35.97
2024-02-21T16:48:37.913Z,32.08
2024-02-21T16:50:48.840Z,33.45
2024-02-21T16:52:55.134Z,27.08
2024-02-21T16:54:57.659Z,33.97
2024-02-21T16:56:59.275Z,30.38
2024-02-21T16:59:00.866Z,34.28
2024-02-21T17:01:09.435Z,40.35
2024-02-21T17:03:13.682Z,32.85
2024-02-21T17:05:15.470Z,30.15
2024-02-21T17:07:17.164Z,29.35
2024-02-21T17:09:19.036Z,50.83
2024-02-21T17:11:20.748Z,71.57
2024-02-21T17:13:22.803Z,101.13
2024-02-21T17:15:24.434Z,73.82
2024-02-21T17:17:26.209Z,63.15
2024-02-21T17:19:28.025Z,88.38
2024-02-21T17:21:30.096Z,123.20
2024-02-21T17:23:32.452Z,136.52
2024-02-21T17:25:34.214Z,159.27
2024-02-21T17:27:35.873Z,110.28
2024-02-21T17:29:37.441Z,129.23
2024-02-21T17:31:39.099Z,35.05
2024-02-21T17:33:40.824Z,31.08
2024-02-21T17:35:44.969Z,48.60
2024-02-21T17:37:46.592Z,49.53
2024-02-21T17:39:48.237Z,55.28
2024-02-21T17:41:54.095Z,52.65
2024-02-21T17:43:55.678Z,38.13
2024-02-21T17:46:01.282Z,47.50
2024-02-21T17:48:02.971Z,56.15
2024-02-21T17:50:05.306Z,46.65
2024-02-21T17:52:07.098Z,56.33
2024-02-21T17:54:08.734Z,74.07
2024-02-21T17:56:10.360Z,43.80
2024-02-21T17:58:11.914Z,35.45
2024-02-21T18:00:14.050Z,62.28
2024-02-21T18:02:21.088Z,57.38
2024-02-21T18:04:24.505Z,58.75
2024-02-21T18:06:26.219Z,47.10
2024-02-21T18:08:27.960Z,69.10
2024-02-21T18:10:32.565Z,64.82
2024-02-21T18:12:34.234Z,43.83
2024-02-21T18:14:35.752Z,35.60
2024-02-21T18:16:37.336Z,33.17
2024-02-21T18:18:39.596Z,34.00
2024-02-21T18:20:41.378Z,37.55
2024-02-21T18:22:42.996Z,33.15
2024-02-21T18:24:44.630Z,40.00
2024-02-21T18:26:46.137Z,41.53
2024-02-21T18:28:47.858Z,39.45
2024-02-21T18:30:49.682Z,35.83
2024-02-21T18:32:51.548Z,30.10
2024-02-21T18:34:53.543Z,30.23
2024-02-21T18:36:55.202Z,37.88
2024-02-21T18:38:57.245Z,34.97
2024-02-21T18:40:58.906Z,42.17
2024-02-21T18:43:00.467Z,38.58
2024-02-21T18:45:02.087Z,51.75
2024-02-21T18:47:04.921Z,59.47
2024-02-21T18:49:09.682Z,56.70
2024-02-21T18:51:11.719Z,45.10
2024-02-21T18:53:13.502Z,53.55
2024-02-21T18:55:16.801Z,57.38
2024-02-21T18:57:18.757Z,75.57
2024-02-21T18:59:20.722Z,65.90
2024-02-21T19:01:22.970Z,59.08
2024-02-21T19:03:24.714Z,56.42
2024-02-21T19:05:26.492Z,55.10
2024-02-21T19:07:29.567Z,55.50
2024-02-21T19:09:31.138Z,64.03
2024-02-21T19:11:33.173Z,58.28
2024-02-21T19:13:35.109Z,34.72
2024-02-21T19:15:38.518Z,43.55
2024-02-21T19:17:40.484Z,34.20
2024-02-21T19:19:43.546Z,42.80
2024-02-21T19:21:46.085Z,41.97
2024-02-21T19:23:47.766Z,37.90
2024-02-21T19:25:49.418Z,36.92
2024-02-21T19:27:51.023Z,30.95
2024-02-21T19:29:52.657Z,35.92
2024-02-21T19:31:54.210Z,30.58
2024-02-21T19:33:55.804Z,32.33
2024-02-21T19:35:57.559Z,34.20
2024-02-21T19:38:06.057Z,33.10
2024-02-21T19:40:11.201Z,30.00
2024-02-21T19:42:14.472Z,32.55
2024-02-21T19:44:16.069Z,36.65
2024-02-21T19:46:17.645Z,51.05
2024-02-21T19:48:20.302Z,42.30
2024-02-21T19:50:23.617Z,35.80
2024-02-21T19:52:25.290Z,36.03
2024-02-21T19:54:26.886Z,36.25
2024-02-21T19:56:28.415Z,34.85
2024-02-21T19:58:31.869Z,32.78
2024-02-21T20:00:33.511Z,41.13
2024-02-21T20:02:35.190Z,34.42
2024-02-21T20:04:36.917Z,36.97
2024-02-21T20:06:38.460Z,45.05
2024-02-21T20:08:40.361Z,37.58
2024-02-21T20:10:42.246Z,32.45
2024-02-21T20:12:44.104Z,43.70
2024-02-21T20:14:45.798Z,31.60
2024-02-21T20:16:48.135Z,31.80
2024-02-21T20:18:52.935Z,37.75
2024-02-21T20:20:54.592Z,38.35
2024-02-21T20:22:56.225Z,31.92
2024-02-21T20:24:57.781Z,31.05
2024-02-21T20:26:59.274Z,38.20
2024-02-21T20:29:01.067Z,28.63
2024-02-21T20:31:02.779Z,32.97
2024-02-21T20:33:05.720Z,34.70
2024-02-21T20:35:07.785Z,32.65
2024-02-21T20:37:12.301Z,34.28
2024-02-21T20:39:15.902Z,40.42
2024-02-21T20:41:18.757Z,127.68
2024-02-21T20:43:20.487Z,49.97
2024-02-21T20:45:22.068Z,39.97
2024-02-21T20:47:25.579Z,38.75
2024-02-21T20:49:29.343Z,39.35
2024-02-21T20:51:32.202Z,40.42
2024-02-21T20:53:33.774Z,35.25
2024-02-21T20:55:35.329Z,42.45
2024-02-21T20:57:38.696Z,38.78
2024-02-21T20:59:40.328Z,44.40
2024-02-21T21:01:47.084Z,41.05
2024-02-21T21:03:52.751Z,41.55
2024-02-21T21:05:54.378Z,48.65
2024-02-21T21:07:56.100Z,39.42
2024-02-21T21:09:58.640Z,44.47
2024-02-21T21:12:00.338Z,44.83
2024-02-21T21:14:01.966Z,41.30
2024-02-21T21:16:03.706Z,49.88
2024-02-21T21:18:06.014Z,43.33
2024-02-21T21:20:11.458Z,40.38
2024-02-21T21:22:13.314Z,42.92
2024-02-21T21:24:14.865Z,43.58
2024-02-21T21:26:16.536Z,41.92
2024-02-21T21:28:18.304Z,41.60
2024-02-21T21:30:21.129Z,37.10
2024-02-21T21:32:22.786Z,59.05
2024-02-21T21:34:24.457Z,40.10
2024-02-21T21:36:26.060Z,39.00
2024-02-21T21:38:28.352Z,41.03
2024-02-21T21:40:31.774Z,55.47
2024-02-21T21:42:33.475Z,46.85
2024-02-21T21:44:35.438Z,51.42
2024-02-21T21:46:40.596Z,58.67
2024-02-21T21:48:43.828Z,53.25
2024-02-21T21:50:45.417Z,57.33
2024-02-21T21:52:47.565Z,56.25
2024-02-21T21:54:52.099Z,46.78
2024-02-21T21:56:53.907Z,43.95
2024-02-21T21:58:55.584Z,43.03
2024-02-21T22:00:57.224Z,38.22
2024-02-21T22:02:58.763Z,45.40
2024-02-21T22:05:01.123Z,49.78
2024-02-21T22:07:02.730Z,45.40
2024-02-21T22:09:06.261Z,76.03
2024-02-21T22:11:09.751Z,55.92
2024-02-21T22:13:11.478Z,49.60
2024-02-21T22:15:12.980Z,49.90
2024-02-21T22:17:17.545Z,48.35
2024-02-21T22:19:21.217Z,44.03
2024-02-21T22:21:22.718Z,47.95
2024-02-21T22:23:24.295Z,39.92
2024-02-21T22:25:25.993Z,41.50
2024-02-21T22:27:28.465Z,40.45
2024-02-21T22:29:31.755Z,41.13
2024-02-21T22:31:33.460Z,44.58
2024-02-21T22:33:34.978Z,53.15
2024-02-21T22:35:36.654Z,42.88
2024-02-21T22:37:38.257Z,42.78
2024-02-21T22:39:39.807Z,41.30
2024-02-21T22:41:45.964Z,43.58
2024-02-21T22:43:47.662Z,39.40
2024-02-21T22:45:50.736Z,45.15
2024-02-21T22:47:52.702Z,38.95
2024-02-21T22:49:54.399Z,46.72
2024-02-21T22:51:58.912Z,44.58
2024-02-21T22:54:00.610Z,46.33
2024-02-21T22:56:02.170Z,47.35
2024-02-21T22:58:03.900Z,45.92
2024-02-21T23:00:09.334Z,52.03
2024-02-21T23:02:10.965Z,47.63
2024-02-21T23:04:12.593Z,49.00
2024-02-21T23:06:14.149Z,44.00
2024-02-21T23:08:15.737Z,44.38
2024-02-21T23:10:17.801Z,44.85
2024-02-21T23:12:21.571Z,49.00
2024-02-21T23:14:23.192Z,50.70
2024-02-21T23:16:24.908Z,51.80
2024-02-21T23:18:26.646Z,52.17
2024-02-21T23:20:28.668Z,56.35
2024-02-21T23:22:30.300Z,54.42
2024-02-21T23:24:31.921Z,68.53
2024-02-21T23:26:35.369Z,69.85
2024-02-21T23:28:42.013Z,63.35
2024-02-21T23:30:44.103Z,56.17
2024-02-21T23:32:45.783Z,62.35
2024-02-21T23:34:47.409Z,55.33
2024-02-21T23:36:48.985Z,54.90
2024-02-21T23:38:50.549Z,71.13
2024-02-21T23:40:52.172Z,48.95
2024-02-21T23:42:53.826Z,50.35
2024-02-21T23:44:56.597Z,59.15
2024-02-21T23:46:58.492Z,49.10
2024-02-21T23:49:02.741Z,51.05
2024-02-21T23:51:05.591Z,51.30
2024-02-21T23:53:07.195Z,54.42
2024-02-21T23:55:09.761Z,50.80
2024-02-21T23:57:11.787Z,50.88
2024-02-21T23:59:13.692Z,42.80
